Terminal Aerodrome Forecast
Issued by NWS

Home | Current Version | Previous Version | Text Only | Print | Product List | Glossary On
Versions: 1 2 3 4 5 6 7 8 9 10 11 12 13 14 15 16 17 18
645
FTUS46 KSEW 281154
TAFBLI
TAF
KBLI 281154Z 2812/0112 VRB03KT 5SM BR SCT003 SCT015 BKN050
      TEMPO 2812/2815 2SM -SHSN BR BKN003 OVC012
     FM281600 15008KT P6SM SCT015 BKN035
     FM282200 16015G25KT P6SM BKN050 BKN100
     FM010300 18018G28KT P6SM -RA BKN035 BKN100
     FM010800 19016G25KT P6SM -RA OVC030=

USA.gov is the U.S. government's official web portal to all federal, state and local government web resources and services.